Time;durP1;ratioP1;P1;durP2;ratioP2;P2;SDS_P1;SDS_P2;PMS_P1;PMS_P2;Temp;Humidity;BMP_temperature;BMP_pressure;BME280_temperature;BME280_humidity;BME280_pressure;Samples;Min_cycle;Max_cycle;Signal;HPM_P1;HPM_P2
2022/01/06 00:01:11;;;;;;;8.10;2.97;;;;;;;0.92;100.00;96092.47;5042186;28;20029;-70
2022/01/06 00:03:37;;;;;;;7.55;3.58;;;;;;;0.93;100.00;96088.03;5042003;28;20208;-70
2022/01/06 00:06:05;;;;;;;11.90;3.65;;;;;;;0.93;100.00;96095.91;5042898;28;20106;-70
2022/01/06 00:08:31;;;;;;;8.82;2.42;;;;;;;0.87;100.00;96088.81;5016846;28;20025;-70
2022/01/06 00:10:57;;;;;;;11.90;4.25;;;;;;;0.86;100.00;96087.19;5026014;28;20064;-70
2022/01/06 00:14:13;;;;;;;15.18;3.80;;;;;;;0.95;100.00;96093.94;5042285;28;20039;-70
2022/01/06 00:16:32;;;;;;;4.78;2.13;;;;;;;0.89;100.00;96094.72;5028747;28;20067;-70
2022/01/06 00:24:22;;;;;;;9.30;3.05;;;;;;;0.87;100.00;96108.06;5040903;28;20036;-70
2022/01/06 00:26:48;;;;;;;6.95;2.45;;;;;;;0.88;100.00;96111.53;5040035;28;20036;-70
2022/01/06 00:29:15;;;;;;;18.27;4.82;;;;;;;0.91;100.00;96114.56;5024251;28;20052;-69
2022/01/06 00:31:41;;;;;;;18.70;5.20;;;;;;;0.91;100.00;96113.75;5039997;28;20076;-70
2022/01/06 00:34:10;;;;;;;12.65;3.50;;;;;;;0.90;100.00;96109.50;5042499;28;20076;-70
2022/01/06 00:36:38;;;;;;;18.23;5.03;;;;;;;0.82;100.00;96095.47;5039383;28;20037;-70
2022/01/06 00:39:04;;;;;;;28.83;6.15;;;;;;;0.83;100.00;96099.75;5040938;28;20052;-70
2022/01/06 00:41:32;;;;;;;15.93;4.43;;;;;;;0.89;100.00;96116.59;5039690;28;20064;-70
2022/01/06 00:43:58;;;;;;;13.60;3.00;;;;;;;0.89;100.00;96107.88;5041183;28;20424;-70
2022/01/06 00:46:23;;;;;;;14.57;3.60;;;;;;;0.88;100.00;96107.06;5041686;28;20127;-71
2022/01/06 00:48:49;;;;;;;21.08;5.03;;;;;;;0.87;100.00;96105.44;5041278;28;20120;-70
2022/01/06 00:51:14;;;;;;;18.02;5.78;;;;;;;0.84;100.00;96104.00;5041306;28;20053;-71
2022/01/06 00:53:40;;;;;;;12.00;2.85;;;;;;;0.80;100.00;96108.03;5040442;28;20040;-71
2022/01/06 00:56:05;;;;;;;17.55;3.90;;;;;;;0.83;100.00;96114.72;5040392;28;20031;-69
2022/01/06 00:58:31;;;;;;;5.55;2.17;;;;;;;0.85;100.00;96117.97;5040008;28;20464;-72
2022/01/06 01:00:57;;;;;;;22.92;5.13;;;;;;;0.84;100.00;96129.53;5040453;28;20200;-71
2022/01/06 01:03:22;;;;;;;10.05;3.28;;;;;;;0.82;100.00;96118.38;5041473;28;20157;-70
2022/01/06 01:05:51;;;;;;;22.50;5.22;;;;;;;0.77;100.00;96126.84;5049641;28;20433;-70
2022/01/06 01:08:17;;;;;;;12.43;4.10;;;;;;;0.69;100.00;96137.56;5048812;28;20575;-70
2022/01/06 01:10:44;;;;;;;7.63;2.78;;;;;;;0.66;100.00;96151.13;5047353;28;20055;-70
2022/01/06 01:13:12;;;;;;;8.52;3.72;;;;;;;0.52;100.00;96144.94;5044169;28;20091;-69
2022/01/06 01:15:47;;;;;;;4.05;2.03;;;;;;;0.44;100.00;96150.38;5045653;28;20246;-70
2022/01/06 01:18:17;;;;;;;19.23;5.00;;;;;;;0.47;100.00;96157.09;5042215;28;20488;-71
2022/01/06 01:20:43;;;;;;;12.68;2.42;;;;;;;0.52;100.00;96149.41;5045939;28;20021;-70
2022/01/06 01:23:09;;;;;;;25.13;4.05;;;;;;;0.58;100.00;96148.63;5043313;28;20198;-71
2022/01/06 01:25:34;;;;;;;13.05;3.75;;;;;;;0.62;100.00;96152.50;5042929;28;20572;-71
2022/01/06 01:28:03;;;;;;;19.13;5.05;;;;;;;0.54;100.00;96150.03;5044511;28;20075;-70
2022/01/06 01:30:32;;;;;;;11.05;4.13;;;;;;;0.49;100.00;96155.06;5047038;28;20056;-72
2022/01/06 01:32:59;;;;;;;14.32;4.70;;;;;;;0.55;100.00;96156.94;5046153;28;20434;-70
2022/01/06 01:35:32;;;;;;;9.27;2.70;;;;;;;0.59;100.00;96157.34;5043447;28;20474;-72
2022/01/06 01:37:59;;;;;;;11.38;3.22;;;;;;;0.54;100.00;96158.75;5043403;28;20036;-72
2022/01/06 01:40:25;;;;;;;17.48;4.18;;;;;;;0.57;100.00;96173.34;5043149;28;20029;-72
2022/01/06 01:42:51;;;;;;;19.73;4.50;;;;;;;0.62;100.00;96178.03;5026355;28;20067;-70
2022/01/06 01:45:17;;;;;;;25.40;4.97;;;;;;;0.65;100.00;96186.38;5043661;28;20239;-70
2022/01/06 01:47:45;;;;;;;20.48;4.03;;;;;;;0.67;100.00;96188.81;5042244;28;20311;-70
2022/01/06 01:50:16;;;;;;;14.43;4.13;;;;;;;0.68;100.00;96185.16;5042583;28;20040;-71
2022/01/06 01:52:47;;;;;;;14.05;2.17;;;;;;;0.70;100.00;96183.97;5025316;28;20618;-72
2022/01/06 01:55:14;;;;;;;;;;;;;;;0.68;100.00;96190.44;5043230;28;20036;-71
2022/01/06 01:57:40;;;;;;;10.35;3.60;;;;;;;0.63;100.00;96192.84;5044705;28;19912;-70
2022/01/06 02:00:12;;;;;;;20.45;5.85;;;;;;;0.58;100.00;96185.50;5044758;28;20041;-69
2022/01/06 02:02:41;;;;;;;12.23;3.95;;;;;;;0.51;100.00;96197.81;5025846;28;20124;-70
2022/01/06 02:05:08;;;;;;;24.00;6.10;;;;;;;0.50;100.00;96198.81;5025947;28;20044;-70
2022/01/06 02:07:34;;;;;;;28.92;3.65;;;;;;;0.54;100.00;96190.34;5023223;28;20048;-71
2022/01/06 02:10:00;;;;;;;22.50;5.05;;;;;;;0.52;100.00;96192.34;5042203;28;20033;-69
2022/01/06 02:12:29;;;;;;;21.92;5.82;;;;;;;0.60;100.00;96194.03;5042765;28;20037;-71
2022/01/06 02:14:56;;;;;;;10.57;2.78;;;;;;;0.61;100.00;96195.66;5043414;28;20045;-72
2022/01/06 02:17:21;;;;;;;15.77;4.07;;;;;;;0.63;100.00;96198.94;5042141;28;20559;-70
2022/01/06 02:20:00;;;;;;;13.38;4.25;;;;;;;0.64;100.00;96186.56;5043740;28;20063;-70
2022/01/06 02:22:26;;;;;;;23.92;5.78;;;;;;;0.68;100.00;96199.13;5042773;28;20111;-71
2022/01/06 02:24:52;;;;;;;14.55;3.70;;;;;;;0.67;100.00;96194.06;5042853;28;20525;-71
2022/01/06 02:27:22;;;;;;;17.98;3.45;;;;;;;0.57;100.00;96186.53;5017556;28;20045;-70
2022/01/06 02:29:49;;;;;;;17.08;4.50;;;;;;;0.57;100.00;96194.41;5042542;28;20048;-70
2022/01/06 02:32:16;;;;;;;17.15;3.92;;;;;;;0.56;100.00;96208.59;5040329;28;20055;-71
2022/01/06 02:34:47;;;;;;;9.52;3.40;;;;;;;0.60;100.00;96203.75;5043126;28;20033;-71
2022/01/06 02:37:14;;;;;;;13.27;3.58;;;;;;;0.61;100.00;96203.53;5040149;28;20078;-70
2022/01/06 02:39:43;;;;;;;10.15;2.95;;;;;;;0.59;100.00;96213.47;5042603;28;20029;-70
2022/01/06 02:42:09;;;;;;;16.42;3.22;;;;;;;0.56;100.00;96200.69;5042352;28;20056;-69
2022/01/06 02:44:38;;;;;;;10.95;3.80;;;;;;;0.54;100.00;96214.06;5043247;28;20049;-72
2022/01/06 02:47:07;;;;;;;10.45;2.75;;;;;;;0.59;100.00;96212.66;5040476;28;20043;-70
2022/01/06 02:49:33;;;;;;;21.05;5.40;;;;;;;0.60;100.00;96224.81;5042558;28;20044;-71
2022/01/06 02:51:59;;;;;;;24.67;5.18;;;;;;;0.60;100.00;96230.88;5039841;28;20483;-70
2022/01/06 02:54:26;;;;;;;6.68;2.40;;;;;;;0.55;100.00;96220.94;5041364;28;20037;-71
2022/01/06 02:56:52;;;;;;;20.92;5.05;;;;;;;0.63;100.00;96235.78;5039894;28;20041;-72
2022/01/06 02:59:18;;;;;;;4.63;2.92;;;;;;;0.63;100.00;96241.06;5042555;28;20029;-70
2022/01/06 03:01:45;;;;;;;24.15;6.13;;;;;;;0.61;100.00;96231.69;5038513;28;20044;-71
2022/01/06 03:04:12;;;;;;;27.00;7.15;;;;;;;0.55;100.00;96222.78;5042976;28;20037;-70
2022/01/06 03:06:39;;;;;;;13.70;3.85;;;;;;;0.63;100.00;96237.63;5022896;28;20037;-70
2022/01/06 03:09:06;;;;;;;23.13;5.95;;;;;;;0.63;100.00;96234.97;5023956;28;20044;-69
2022/01/06 03:11:33;;;;;;;20.08;4.70;;;;;;;0.61;100.00;96245.69;5041626;28;20021;-72
2022/01/06 03:13:59;;;;;;;37.05;7.05;;;;;;;0.67;100.00;96259.91;5039444;28;20029;-70
2022/01/06 03:16:25;;;;;;;35.47;8.55;;;;;;;0.67;100.00;96260.72;5043279;28;20043;-72
2022/01/06 03:18:51;;;;;;;21.98;6.38;;;;;;;0.69;100.00;96266.59;5041732;28;20531;-71
2022/01/06 03:21:16;;;;;;;32.95;8.10;;;;;;;0.69;100.00;96257.91;5042547;28;20182;-70
2022/01/06 03:23:42;;;;;;;26.52;6.68;;;;;;;0.66;100.00;96251.19;5041487;28;20367;-70
2022/01/06 03:26:07;;;;;;;22.02;5.47;;;;;;;0.64;100.00;96255.84;5040493;28;20483;-70
2022/01/06 03:28:33;;;;;;;10.90;4.65;;;;;;;0.67;100.00;96268.63;5040087;28;20056;-71
2022/01/06 03:30:59;;;;;;;31.33;7.65;;;;;;;0.54;100.00;96252.72;5041317;28;20045;-70
2022/01/06 03:33:25;;;;;;;24.27;6.70;;;;;;;0.67;100.00;96273.09;5043475;28;20565;-71
2022/01/06 03:35:51;;;;;;;12.68;4.68;;;;;;;0.63;100.00;96274.47;5041871;28;20074;-70
2022/01/06 03:38:16;;;;;;;18.67;4.97;;;;;;;0.65;100.00;96280.38;5040338;28;20142;-70
2022/01/06 03:40:42;;;;;;;19.33;6.78;;;;;;;0.59;100.00;96289.03;5039950;28;20423;-70
2022/01/06 03:43:08;;;;;;;20.75;6.70;;;;;;;0.62;100.00;96286.81;5042108;28;20065;-70
2022/01/06 03:45:34;;;;;;;29.13;7.28;;;;;;;0.62;100.00;96289.44;5041084;28;20171;-72
2022/01/06 03:48:00;;;;;;;24.77;6.20;;;;;;;0.63;100.00;96291.09;5040129;28;20138;-70
2022/01/06 03:50:26;;;;;;;32.95;8.52;;;;;;;0.63;100.00;96303.44;5041885;28;20029;-71
2022/01/06 03:52:51;;;;;;;19.92;5.70;;;;;;;0.63;100.00;96292.91;5039377;28;20094;-71
2022/01/06 03:55:19;;;;;;;27.67;4.75;;;;;;;0.57;100.00;96286.59;5040243;28;20428;-70
2022/01/06 03:57:46;;;;;;;9.45;3.40;;;;;;;0.55;100.00;96291.22;5022490;28;20094;-70
2022/01/06 04:00:14;;;;;;;11.15;4.70;;;;;;;0.51;100.00;96295.22;5041082;28;20041;-70
2022/01/06 04:02:41;;;;;;;17.65;5.88;;;;;;;0.52;100.00;96300.31;5042196;28;20060;-70
2022/01/06 04:05:07;;;;;;;11.90;4.05;;;;;;;0.52;100.00;96299.50;5040814;28;20048;-70
2022/01/06 04:07:33;;;;;;;8.35;3.63;;;;;;;0.51;100.00;96309.22;5040146;28;20423;-72
2022/01/06 04:09:59;;;;;;;22.48;6.32;;;;;;;0.52;100.00;96304.75;5041421;28;20056;-70
2022/01/06 04:12:25;;;;;;;19.33;5.57;;;;;;;0.52;100.00;96312.66;5040503;28;20420;-71
2022/01/06 04:14:50;;;;;;;26.23;6.53;;;;;;;0.48;100.00;96300.88;5041360;28;20041;-70
2022/01/06 04:17:16;;;;;;;20.42;6.97;;;;;;;0.52;100.00;96315.28;5041331;28;20052;-70
2022/01/06 04:19:41;;;;;;;7.70;3.22;;;;;;;0.50;100.00;96315.47;5040922;28;20058;-69
2022/01/06 04:22:07;;;;;;;19.83;4.35;;;;;;;0.46;100.00;96311.59;5040593;28;20039;-70
2022/01/06 04:24:33;;;;;;;21.20;6.03;;;;;;;0.44;100.00;96316.22;5042008;28;20036;-71
2022/01/06 04:26:59;;;;;;;11.43;4.10;;;;;;;0.45;100.00;96319.69;5042181;28;20035;-70
2022/01/06 04:29:24;;;;;;;4.63;2.75;;;;;;;0.41;100.00;96331.59;5040908;28;20033;-70
2022/01/06 04:31:50;;;;;;;10.73;3.05;;;;;;;0.38;100.00;96321.44;5040010;28;20040;-70
2022/01/06 04:34:15;;;;;;;20.42;5.82;;;;;;;0.40;100.00;96319.44;5041477;28;20457;-70
2022/01/06 04:36:47;;;;;;;18.98;5.25;;;;;;;0.38;100.00;96321.44;5039620;28;20052;-70
2022/01/06 04:39:12;;;;;;;12.00;4.63;;;;;;;0.41;100.00;96336.88;5041076;28;20067;-70
2022/01/06 04:41:38;;;;;;;23.40;6.10;;;;;;;0.42;100.00;96341.13;5045279;28;20075;-70
2022/01/06 04:44:03;;;;;;;13.05;4.32;;;;;;;0.38;100.00;96342.50;5044168;28;20056;-70
2022/01/06 04:46:29;;;;;;;30.45;6.07;;;;;;;0.39;100.00;96338.84;5043397;28;20029;-72
2022/01/06 04:48:54;;;;;;;24.08;8.05;;;;;;;0.38;100.00;96340.66;5044013;28;20522;-72
2022/01/06 04:51:20;;;;;;;34.58;8.30;;;;;;;0.40;100.00;96340.50;5045299;28;20059;-71
2022/01/06 04:53:45;;;;;;;25.60;6.30;;;;;;;0.40;100.00;96361.56;5043247;28;20067;-70
2022/01/06 04:56:11;;;;;;;15.85;6.65;;;;;;;0.38;100.00;96353.03;5047955;28;20062;-70
2022/01/06 04:58:36;;;;;;;23.52;5.93;;;;;;;0.34;100.00;96360.50;5043275;28;20051;-70
2022/01/06 05:01:02;;;;;;;25.40;7.07;;;;;;;0.37;100.00;96360.09;5044720;28;20037;-70
2022/01/06 05:03:28;;;;;;;18.13;5.72;;;;;;;0.35;100.00;96362.13;5027249;28;20029;-71
2022/01/06 05:05:53;;;;;;;22.45;5.47;;;;;;;0.32;100.00;96367.78;5044740;28;20326;-70
2022/01/06 05:08:18;;;;;;;4.65;2.67;;;;;;;0.27;100.00;96368.31;5044757;28;20448;-69
2022/01/06 05:10:44;;;;;;;15.88;5.15;;;;;;;0.19;100.00;96364.97;5044032;28;20064;-69
2022/01/06 05:13:09;;;;;;;12.90;5.35;;;;;;;0.22;100.00;96380.38;5045416;28;20079;-69
2022/01/06 05:15:35;;;;;;;25.23;6.15;;;;;;;0.26;100.00;96398.28;5046439;28;20551;-71
2022/01/06 05:18:01;;;;;;;27.30;6.93;;;;;;;0.26;100.00;96390.38;5046196;28;20120;-71
2022/01/06 05:20:27;;;;;;;27.42;6.55;;;;;;;0.34;100.00;96394.72;5045898;28;20025;-72
2022/01/06 05:22:56;;;;;;;29.25;8.15;;;;;;;0.40;100.00;96393.16;5044108;28;20064;-70
2022/01/06 05:25:25;;;;;;;19.80;5.93;;;;;;;0.45;100.00;96398.66;5044351;28;20072;-70
2022/01/06 05:27:51;;;;;;;23.20;6.40;;;;;;;0.46;100.00;96397.66;5042720;28;20068;-70
2022/01/06 05:30:17;;;;;;;16.75;6.22;;;;;;;0.46;100.00;96406.38;5009630;28;20041;-70
2022/01/06 05:32:42;;;;;;;17.10;5.97;;;;;;;0.43;100.00;96405.94;5043787;28;20051;-70
2022/01/06 05:35:08;;;;;;;11.00;5.13;;;;;;;0.39;100.00;96410.78;5043464;28;20464;-71
2022/01/06 05:37:33;;;;;;;16.40;5.68;;;;;;;0.38;100.00;96429.38;5041305;28;20116;-72
2022/01/06 05:39:59;;;;;;;18.02;7.35;;;;;;;0.34;100.00;96423.66;5041766;28;20035;-70
2022/01/06 05:42:24;;;;;;;16.45;5.30;;;;;;;0.33;100.00;96432.56;5044306;28;20135;-70
2022/01/06 05:44:50;;;;;;;21.40;6.72;;;;;;;0.27;100.00;96434.13;5047774;28;20072;-70
2022/01/06 05:47:16;;;;;;;14.85;4.97;;;;;;;0.29;100.00;96426.03;5044334;28;20144;-70
2022/01/06 05:49:41;;;;;;;24.80;6.65;;;;;;;0.27;100.00;96433.31;5045928;28;20511;-70
2022/01/06 05:52:07;;;;;;;20.92;6.35;;;;;;;0.31;100.00;96431.09;5044930;28;20044;-70
2022/01/06 05:54:32;;;;;;;13.73;4.72;;;;;;;0.32;100.00;96435.41;5047384;28;20063;-69
2022/01/06 05:56:58;;;;;;;23.88;7.15;;;;;;;0.35;100.00;96443.72;5043879;28;20357;-70
2022/01/06 05:59:24;;;;;;;24.65;7.30;;;;;;;0.38;100.00;96442.53;5044799;28;20491;-70
2022/01/06 06:01:50;;;;;;;23.25;6.18;;;;;;;0.38;100.00;96455.69;5044362;28;20049;-71
2022/01/06 06:04:15;;;;;;;30.42;8.70;;;;;;;0.37;100.00;96454.88;5046055;28;20383;-70
2022/01/06 06:06:41;;;;;;;20.58;6.53;;;;;;;0.42;100.00;96456.97;5042724;28;20033;-70
2022/01/06 06:09:06;;;;;;;26.50;6.88;;;;;;;0.45;100.00;96451.31;5044480;28;20064;-70
2022/01/06 06:11:32;;;;;;;27.30;5.53;;;;;;;0.43;100.00;96446.25;5044369;28;20044;-70
2022/01/06 06:14:12;;;;;;;24.58;8.05;;;;;;;0.40;100.00;96445.81;2850758;28;10002410;-70
2022/01/06 06:16:37;;;;;;;32.35;6.72;;;;;;;0.45;100.00;96464.50;2957237;28;10001496;-70
2022/01/06 06:19:03;;;;;;;28.08;7.00;;;;;;;0.46;100.00;96463.47;5046237;28;20048;-69
2022/01/06 06:21:28;;;;;;;19.77;7.13;;;;;;;0.48;100.00;96466.78;5045767;28;20021;-70
2022/01/06 06:23:54;;;;;;;18.25;5.57;;;;;;;0.50;100.00;96475.28;5044694;28;20064;-70
2022/01/06 06:26:19;;;;;;;30.15;7.28;;;;;;;0.49;100.00;96473.66;5043564;28;20132;-70
2022/01/06 06:28:45;;;;;;;19.35;6.95;;;;;;;0.54;100.00;96472.13;5042366;28;20063;-70
2022/01/06 06:31:10;;;;;;;24.45;7.78;;;;;;;0.59;100.00;96474.19;5042433;28;20045;-69
2022/01/06 06:33:36;;;;;;;36.47;8.45;;;;;;;0.58;100.00;96477.00;5042869;28;20118;-70
2022/01/06 06:36:02;;;;;;;34.20;7.72;;;;;;;0.68;100.00;96488.03;5043016;28;20459;-70
2022/01/06 06:38:27;;;;;;;27.42;7.82;;;;;;;0.67;100.00;96489.06;5042152;28;20025;-70
2022/01/06 06:40:53;;;;;;;30.05;7.63;;;;;;;0.69;100.00;96501.03;5041632;28;20041;-71
2022/01/06 06:43:18;;;;;;;25.55;7.22;;;;;;;0.63;100.00;96493.06;5044951;28;20052;-70
2022/01/06 06:45:44;;;;;;;23.27;8.52;;;;;;;0.59;100.00;96491.78;5043556;28;20040;-70
2022/01/06 06:48:10;;;;;;;37.78;8.88;;;;;;;0.47;100.00;96494.09;5041678;28;20082;-70
2022/01/06 06:50:36;;;;;;;30.45;7.60;;;;;;;0.43;100.00;96498.09;5043835;28;20033;-69
2022/01/06 06:53:02;;;;;;;30.27;9.32;;;;;;;0.42;100.00;96504.34;5042107;28;20487;-70
2022/01/06 06:55:28;;;;;;;31.85;7.60;;;;;;;0.43;100.00;96512.06;5044895;28;20033;-70
2022/01/06 06:57:54;;;;;;;39.38;9.02;;;;;;;0.43;100.00;96500.72;5044626;28;20045;-70
2022/01/06 07:00:20;;;;;;;27.25;9.35;;;;;;;0.42;100.00;96502.53;5043332;28;20021;-71
2022/01/06 07:02:45;;;;;;;23.90;6.57;;;;;;;0.42;100.00;96501.72;5043967;28;20531;-71
2022/01/06 07:05:11;;;;;;;27.02;6.20;;;;;;;0.46;100.00;96508.25;5045278;28;20036;-71
2022/01/06 07:07:36;;;;;;;28.08;7.97;;;;;;;0.47;100.00;96517.81;5042305;28;20047;-70
2022/01/06 07:10:03;;;;;;;31.27;9.77;;;;;;;0.46;100.00;96519.59;5044173;28;20111;-70
2022/01/06 07:12:30;;;;;;;26.45;7.38;;;;;;;0.48;100.00;96522.88;5043811;28;20124;-69
2022/01/06 07:14:57;;;;;;;36.55;10.13;;;;;;;0.53;100.00;96525.75;5044144;28;20032;-70
2022/01/06 07:17:22;;;;;;;34.65;7.63;;;;;;;0.56;100.00;96524.59;5044258;28;20033;-70
2022/01/06 07:19:48;;;;;;;25.88;6.38;;;;;;;0.52;100.00;96533.84;5045363;28;20063;-70
2022/01/06 07:22:13;;;;;;;39.30;8.23;;;;;;;0.48;100.00;96543.94;5043200;28;20255;-70
2022/01/06 07:24:39;;;;;;;22.75;8.00;;;;;;;0.49;100.00;96547.38;5045760;28;20044;-70
2022/01/06 07:27:04;;;;;;;20.20;7.30;;;;;;;0.46;100.00;96545.09;5043664;28;20140;-70
2022/01/06 07:29:30;;;;;;;27.92;8.27;;;;;;;0.49;100.00;96545.56;5044052;28;20036;-69
2022/01/06 07:31:56;;;;;;;31.98;7.82;;;;;;;0.48;100.00;96551.84;5043365;28;20053;-69
2022/01/06 07:34:24;;;;;;;28.60;8.55;;;;;;;0.51;100.00;96556.72;5043934;28;20033;-70
2022/01/06 07:36:49;;;;;;;36.13;8.43;;;;;;;0.56;100.00;96566.72;5041595;28;20037;-69
2022/01/06 07:39:15;;;;;;;26.52;8.13;;;;;;;0.59;100.00;96566.34;5044079;28;20036;-70
2022/01/06 07:41:40;;;;;;;23.35;7.50;;;;;;;0.56;100.00;96569.38;5042521;28;20362;-69
2022/01/06 07:44:07;;;;;;;30.27;7.95;;;;;;;0.64;100.00;96571.91;5042533;28;20041;-70
2022/01/06 07:46:35;;;;;;;18.95;6.63;;;;;;;0.61;100.00;96580.16;5042409;28;20033;-70
2022/01/06 07:49:01;;;;;;;39.17;9.93;;;;;;;0.64;100.00;96573.72;5043174;28;20041;-69
2022/01/06 07:51:30;;;;;;;28.90;8.13;;;;;;;0.67;100.00;96583.88;5042953;28;20083;-70
2022/01/06 07:53:58;;;;;;;20.77;6.32;;;;;;;0.68;100.00;96594.22;5041319;28;20044;-70
2022/01/06 07:56:24;;;;;;;33.35;7.63;;;;;;;0.61;100.00;96601.22;5044896;28;20040;-69
2022/01/06 07:58:50;;;;;;;29.17;8.13;;;;;;;0.65;100.00;96607.75;5043093;28;20083;-70
2022/01/06 08:01:16;;;;;;;35.47;8.55;;;;;;;0.62;100.00;96602.84;5042156;28;20059;-70
2022/01/06 08:03:42;;;;;;;31.88;8.23;;;;;;;0.70;100.00;96615.94;5044041;28;20045;-70
2022/01/06 08:06:09;;;;;;;29.02;8.13;;;;;;;0.68;100.00;96623.19;5044319;28;20040;-69
2022/01/06 08:08:35;;;;;;;26.58;8.02;;;;;;;0.72;100.00;96618.41;5045645;28;20524;-71
2022/01/06 08:11:01;;;;;;;32.42;9.23;;;;;;;0.69;100.00;96613.47;5042975;28;20087;-70
2022/01/06 08:13:26;;;;;;;24.10;8.32;;;;;;;0.72;100.00;96621.03;5044957;28;20037;-70
2022/01/06 08:15:52;;;;;;;27.08;8.52;;;;;;;0.81;100.00;96622.56;5048976;28;20543;-71
2022/01/06 08:18:18;;;;;;;32.58;9.05;;;;;;;0.94;100.00;96625.38;5050147;28;20128;-70
2022/01/06 08:20:43;;;;;;;30.13;8.30;;;;;;;0.91;100.00;96632.81;5049218;28;20547;-70
2022/01/06 08:23:09;;;;;;;25.92;8.60;;;;;;;0.96;100.00;96638.34;5049616;28;20037;-70
2022/01/06 08:25:36;;;;;;;41.15;9.35;;;;;;;0.88;100.00;96633.19;5047964;28;20028;-70
2022/01/06 08:28:02;;;;;;;33.80;8.38;;;;;;;0.86;100.00;96640.44;5048834;28;20037;-70
2022/01/06 08:30:27;;;;;;;35.65;9.15;;;;;;;0.88;100.00;96641.91;5049424;28;20494;-70
2022/01/06 08:32:55;;;;;;;33.10;9.80;;;;;;;0.90;100.00;96644.34;5050975;28;20056;-70
2022/01/06 08:35:21;;;;;;;25.23;9.63;;;;;;;1.04;100.00;96646.97;5049594;28;20079;-69
2022/01/06 08:37:47;;;;;;;25.15;8.23;;;;;;;1.16;100.00;96652.56;5049076;28;20147;-71
2022/01/06 08:40:13;;;;;;;33.92;9.55;;;;;;;1.33;100.00;96648.75;5048477;28;20041;-70
2022/01/06 08:42:38;;;;;;;33.55;10.57;;;;;;;1.49;100.00;96657.44;5050520;28;20048;-71
2022/01/06 08:45:04;;;;;;;20.42;7.28;;;;;;;1.50;100.00;96651.16;5049170;28;20045;-70
2022/01/06 08:47:31;;;;;;;31.98;8.88;;;;;;;1.43;100.00;96647.63;5049195;28;20048;-71
2022/01/06 08:49:57;;;;;;;37.30;10.18;;;;;;;1.36;100.00;96643.09;5047868;28;20049;-70
2022/01/06 08:52:22;;;;;;;33.63;9.57;;;;;;;1.27;100.00;96638.94;5047729;28;20440;-70
2022/01/06 08:54:48;;;;;;;33.97;8.20;;;;;;;1.06;100.00;96638.88;5047988;28;20032;-70
2022/01/06 08:57:14;;;;;;;24.60;7.30;;;;;;;1.07;100.00;96658.97;5047303;28;20059;-72
2022/01/06 08:59:39;;;;;;;34.42;9.77;;;;;;;1.25;100.00;96662.03;5048091;28;20448;-71
2022/01/06 09:02:05;;;;;;;36.75;9.88;;;;;;;1.56;100.00;96663.59;5049397;28;20049;-70
2022/01/06 09:04:33;;;;;;;24.63;8.73;;;;;;;1.57;100.00;96666.03;5051376;28;20472;-70
2022/01/06 09:06:58;;;;;;;34.17;10.57;;;;;;;1.49;100.00;96666.16;5048867;28;20037;-70
2022/01/06 09:09:24;;;;;;;34.33;8.77;;;;;;;1.46;100.00;96670.97;5050005;28;20037;-71
2022/01/06 09:11:50;;;;;;;29.38;9.82;;;;;;;1.38;100.00;96669.28;5049817;28;20045;-71
2022/01/06 09:14:16;;;;;;;37.33;10.38;;;;;;;1.36;100.00;96671.28;5049849;28;20175;-70
2022/01/06 09:16:43;;;;;;;29.23;10.98;;;;;;;1.34;100.00;96676.75;5049726;28;20041;-70
2022/01/06 09:19:08;;;;;;;27.40;9.13;;;;;;;1.35;100.00;96670.47;5048107;28;20487;-70
2022/01/06 09:21:34;;;;;;;36.47;10.27;;;;;;;1.36;100.00;96672.09;5050387;28;20430;-71
2022/01/06 09:24:01;;;;;;;26.25;8.00;;;;;;;1.36;100.00;96684.47;5049593;28;20364;-70
2022/01/06 09:26:27;;;;;;;24.38;9.50;;;;;;;1.43;100.00;96674.00;5047400;28;20039;-72
2022/01/06 09:28:52;;;;;;;35.80;9.32;;;;;;;1.48;100.00;96683.00;5049275;28;20040;-72
2022/01/06 09:31:18;;;;;;;22.65;7.40;;;;;;;1.35;100.00;96694.19;5048077;28;20065;-70
2022/01/06 09:33:44;;;;;;;25.70;9.02;;;;;;;1.34;100.00;96687.28;5044655;28;20029;-70
2022/01/06 09:36:09;;;;;;;39.72;8.73;;;;;;;1.36;100.00;96690.56;5044812;28;20072;-71
2022/01/06 09:38:35;;;;;;;31.58;9.57;;;;;;;1.36;100.00;96698.47;5045445;28;20464;-70
2022/01/06 09:41:03;;;;;;;20.38;7.88;;;;;;;1.35;100.00;96703.94;5044128;28;20037;-71
2022/01/06 09:43:31;;;;;;;37.78;8.40;;;;;;;1.29;100.00;96705.47;5047748;28;20377;-70
2022/01/06 09:46:03;;;;;;;21.13;7.55;;;;;;;1.19;100.00;96714.69;5046170;28;20061;-71
2022/01/06 09:48:30;;;;;;;20.35;7.38;;;;;;;1.16;100.00;96707.13;5047070;28;20116;-70
2022/01/06 09:50:58;;;;;;;32.38;8.25;;;;;;;1.25;100.00;96712.13;5044638;28;20419;-71
2022/01/06 09:53:26;;;;;;;26.13;8.88;;;;;;;1.27;100.00;96710.13;5045621;28;20060;-70
2022/01/06 09:55:51;;;;;;;26.33;8.73;;;;;;;1.25;100.00;96708.69;5044406;28;20397;-71
2022/01/06 09:58:28;;;;;;;21.50;7.78;;;;;;;1.18;100.00;96700.69;5045768;28;20045;-70
2022/01/06 10:00:56;;;;;;;37.08;8.55;;;;;;;1.26;100.00;96710.31;5044833;28;20052;-71
2022/01/06 10:03:32;;;;;;;23.40;7.68;;;;;;;1.42;100.00;96711.91;5046563;28;20025;-70
2022/01/06 10:06:15;;;;;;;30.73;7.88;;;;;;;1.59;100.00;96710.69;5045003;28;20171;-71
2022/01/06 10:08:43;;;;;;;20.23;6.20;;;;;;;1.59;100.00;96713.34;5045928;28;20486;-71
2022/01/06 10:11:11;;;;;;;17.88;5.85;;;;;;;1.54;100.00;96707.78;5044007;28;20454;-70
2022/01/06 10:13:37;;;;;;;25.15;7.13;;;;;;;1.59;100.00;96702.78;5045218;28;20029;-70
2022/01/06 10:16:17;;;;;;;32.03;6.97;;;;;;;1.77;100.00;96713.72;5040595;28;20476;-71
2022/01/06 10:19:14;;;;;;;23.50;5.97;;;;;;;1.75;100.00;96713.09;5043255;28;20040;-72
2022/01/06 10:21:44;;;;;;;20.00;7.22;;;;;;;1.65;100.00;96707.31;5033125;28;20044;-70
2022/01/06 10:24:15;;;;;;;15.97;5.30;;;;;;;1.62;100.00;96713.78;5043635;28;20021;-70
2022/01/06 10:26:54;;;;;;;27.30;5.20;;;;;;;1.65;100.00;96720.50;5043630;28;20745;-71
2022/01/06 10:29:21;;;;;;;23.27;6.22;;;;;;;1.63;100.00;96711.94;5045038;28;20071;-71
2022/01/06 10:31:47;;;;;;;22.35;6.90;;;;;;;1.60;100.00;96718.41;5045571;28;20076;-71
2022/01/06 10:34:12;;;;;;;20.27;7.07;;;;;;;1.57;100.00;96724.06;5045954;28;20044;-70
2022/01/06 10:36:39;;;;;;;26.10;6.35;;;;;;;1.59;100.00;96721.25;5042617;28;20122;-71
2022/01/06 10:39:08;;;;;;;25.10;7.88;;;;;;;1.59;100.00;96716.78;5042372;28;20127;-71
2022/01/06 10:41:36;;;;;;;17.70;6.30;;;;;;;1.63;100.00;96720.69;5042805;28;20043;-70
2022/01/06 10:44:02;;;;;;;17.27;6.30;;;;;;;1.82;100.00;96716.63;5044118;28;20096;-71
2022/01/06 10:46:31;;;;;;;23.27;6.78;;;;;;;1.78;100.00;96698.72;5043656;28;20060;-70
2022/01/06 10:48:58;;;;;;;23.20;6.70;;;;;;;1.94;100.00;96714.31;5043157;28;20029;-70
2022/01/06 10:51:39;;;;;;;21.98;5.90;;;;;;;2.05;100.00;96721.75;5044606;28;20099;-70
2022/01/06 10:54:10;;;;;;;23.25;6.07;;;;;;;2.18;100.00;96721.06;5043922;28;20206;-71
2022/01/06 10:56:36;;;;;;;38.22;6.88;;;;;;;1.83;100.00;96717.44;5045411;28;20116;-70
2022/01/06 10:59:01;;;;;;;25.63;7.00;;;;;;;2.14;100.00;96715.31;5044701;28;20120;-69
2022/01/06 11:01:32;;;;;;;21.88;6.13;;;;;;;1.94;100.00;96720.41;5044931;28;20043;-70
2022/01/06 11:03:57;;;;;;;33.08;7.38;;;;;;;2.23;100.00;96713.38;5045181;28;20364;-71
2022/01/06 11:06:24;;;;;;;15.18;5.28;;;;;;;2.45;100.00;96719.44;5044372;28;20107;-70
2022/01/06 11:08:51;;;;;;;29.05;6.78;;;;;;;2.38;100.00;96715.94;5044394;28;20048;-71
2022/01/06 11:14:04;;;;;;;24.23;5.95;;;;;;;3.03;100.00;96720.03;5044802;28;20098;-71
2022/01/06 11:16:29;;;;;;;22.10;6.40;;;;;;;3.40;100.00;96732.06;5043816;28;20037;-70
2022/01/06 11:18:57;;;;;;;28.50;5.85;;;;;;;3.67;100.00;96729.53;5043091;28;20053;-70
2022/01/06 11:21:39;;;;;;;21.05;5.50;;;;;;;4.95;100.00;96729.25;5044292;28;20419;-70
2022/01/06 11:24:25;;;;;;;25.17;5.72;;;;;;;5.55;100.00;96727.28;5042970;28;20060;-70
2022/01/06 11:27:02;;;;;;;28.48;6.22;;;;;;;4.77;100.00;96728.25;5042255;28;20361;-71
2022/01/06 11:29:37;;;;;;;22.83;5.20;;;;;;;4.26;100.00;96727.00;5041838;28;20191;-70
2022/01/06 11:32:16;;;;;;;25.38;6.13;;;;;;;4.08;100.00;96735.53;5037393;28;20067;-71
2022/01/06 11:34:41;;;;;;;22.45;5.50;;;;;;;3.84;100.00;96730.81;5041423;28;20336;-70